createdAt,value
2018-09-23T00:01:06.738Z,0.83
2018-09-23T00:03:35.283Z,0.40
2018-09-23T00:06:03.737Z,0.57
2018-09-23T00:08:32.215Z,0.40
2018-09-23T00:11:00.743Z,0.30
2018-09-23T00:13:29.225Z,0.30
2018-09-23T00:15:57.650Z,0.77
2018-09-23T00:18:26.146Z,0.50
2018-09-23T00:20:54.805Z,1.00
2018-09-23T00:23:23.302Z,0.53
2018-09-23T00:25:51.742Z,0.50
2018-09-23T00:28:20.157Z,0.33
2018-09-23T00:30:48.600Z,0.30
2018-09-23T00:33:17.037Z,0.57
2018-09-23T00:35:45.487Z,0.27
2018-09-23T00:38:14.070Z,0.50
2018-09-23T00:40:42.597Z,0.23
2018-09-23T00:43:11.064Z,0.80
2018-09-23T00:45:39.709Z,0.47
2018-09-23T00:48:08.588Z,0.37
2018-09-23T00:50:37.071Z,0.40
2018-09-23T00:53:05.970Z,0.47
2018-09-23T00:55:34.514Z,0.40
2018-09-23T00:58:02.970Z,0.57
2018-09-23T01:00:31.538Z,0.70
2018-09-23T01:03:00.037Z,0.50
2018-09-23T01:05:28.545Z,0.20
2018-09-23T01:07:56.997Z,0.50
2018-09-23T01:10:25.677Z,0.50
2018-09-23T01:12:54.114Z,0.33
2018-09-23T01:15:22.557Z,0.60
2018-09-23T01:17:51.038Z,0.20
2018-09-23T01:20:21.091Z,0.42
2018-09-23T01:22:50.031Z,0.30
2018-09-23T01:25:18.517Z,0.57
2018-09-23T01:27:47.034Z,0.30
2018-09-23T01:30:15.480Z,0.57
2018-09-23T01:32:44.015Z,0.50
2018-09-23T01:35:13.462Z,0.67
2018-09-23T01:37:41.972Z,0.50
2018-09-23T01:40:10.393Z,0.40
2018-09-23T01:42:38.890Z,0.50
2018-09-23T01:45:07.870Z,0.70
2018-09-23T01:47:36.445Z,0.33
2018-09-23T01:50:04.966Z,0.43
2018-09-23T01:52:33.469Z,0.40
2018-09-23T01:55:01.874Z,0.60
2018-09-23T01:57:30.367Z,0.40
2018-09-23T01:59:58.847Z,0.50
2018-09-23T02:02:27.317Z,0.40
2018-09-23T02:04:55.767Z,0.43
2018-09-23T02:07:24.260Z,0.63
2018-09-23T02:09:52.774Z,0.47
2018-09-23T02:12:21.221Z,0.40
2018-09-23T02:14:49.633Z,0.37
2018-09-23T02:17:18.091Z,0.50
2018-09-23T02:19:46.787Z,0.43
2018-09-23T02:22:15.258Z,0.43
2018-09-23T02:24:43.744Z,0.40
2018-09-23T02:27:12.202Z,0.40
2018-09-23T02:29:40.731Z,0.30
2018-09-23T02:32:09.193Z,0.50
2018-09-23T02:34:37.802Z,0.30
2018-09-23T02:37:06.627Z,0.57
2018-09-23T02:39:35.165Z,0.30
2018-09-23T02:42:03.617Z,0.37
2018-09-23T02:44:32.356Z,0.43
2018-09-23T02:47:00.907Z,0.50
2018-09-23T02:49:29.382Z,0.50
2018-09-23T02:51:57.841Z,0.43
2018-09-23T02:54:26.387Z,0.50
2018-09-23T02:56:54.941Z,0.30
2018-09-23T02:59:23.433Z,0.40
2018-09-23T03:01:51.894Z,0.40
2018-09-23T03:04:20.354Z,0.50
2018-09-23T03:06:48.817Z,0.78
2018-09-23T03:09:17.355Z,0.30
2018-09-23T03:11:45.836Z,0.40
2018-09-23T03:14:14.331Z,0.40
2018-09-23T03:16:42.974Z,0.40
2018-09-23T03:19:11.407Z,0.60
2018-09-23T03:21:40.094Z,0.50
2018-09-23T03:24:08.714Z,0.70
2018-09-23T03:26:37.238Z,0.50
2018-09-23T03:29:06.107Z,0.57
2018-09-23T03:31:34.550Z,0.30
2018-09-23T03:34:03.076Z,0.50
2018-09-23T03:36:31.522Z,0.47
2018-09-23T03:39:00.018Z,0.30
2018-09-23T03:41:28.528Z,0.57
2018-09-23T03:43:57.050Z,0.50
2018-09-23T03:46:25.548Z,0.65
2018-09-23T03:48:54.084Z,0.47
2018-09-23T03:51:22.566Z,0.60
2018-09-23T03:53:50.994Z,0.23
2018-09-23T03:56:19.518Z,0.60
2018-09-23T03:58:47.967Z,0.47
2018-09-23T04:01:16.538Z,1.00
2018-09-23T04:03:45.000Z,0.30
2018-09-23T04:06:13.522Z,0.70
2018-09-23T04:08:42.040Z,0.50
2018-09-23T04:11:10.506Z,0.40
2018-09-23T04:13:38.989Z,0.70
2018-09-23T04:16:07.702Z,0.50
2018-09-23T04:18:36.122Z,0.40
2018-09-23T04:21:04.744Z,0.50
2018-09-23T04:23:33.193Z,0.70
2018-09-23T04:26:01.718Z,0.40
2018-09-23T04:28:30.194Z,0.43
2018-09-23T04:30:58.644Z,0.50
2018-09-23T04:33:27.040Z,0.40
2018-09-23T04:35:55.513Z,0.53
2018-09-23T04:38:23.982Z,0.40
2018-09-23T04:40:52.478Z,0.50
2018-09-23T04:43:20.985Z,0.40
2018-09-23T04:45:49.437Z,0.45
2018-09-23T04:48:17.901Z,0.50
2018-09-23T04:50:46.431Z,0.50
2018-09-23T04:53:14.855Z,0.50
2018-09-23T04:55:43.539Z,0.45
2018-09-23T04:58:12.058Z,0.47
2018-09-23T05:00:40.711Z,0.40
2018-09-23T05:03:09.217Z,0.40
2018-09-23T05:05:37.707Z,0.30
2018-09-23T05:08:06.890Z,0.47
2018-09-23T05:10:35.452Z,0.50
2018-09-23T05:13:03.982Z,0.50
2018-09-23T05:15:32.447Z,0.60
2018-09-23T05:18:00.915Z,0.70
2018-09-23T05:20:29.407Z,0.40
2018-09-23T05:22:57.868Z,0.50
2018-09-23T05:25:26.390Z,0.47
2018-09-23T05:27:54.845Z,0.40
2018-09-23T05:30:23.337Z,0.50
2018-09-23T05:32:51.810Z,0.35
2018-09-23T05:35:20.312Z,0.60
2018-09-23T05:37:48.758Z,0.40
2018-09-23T05:40:17.227Z,0.67
2018-09-23T05:42:45.801Z,0.30
2018-09-23T05:45:14.460Z,0.43
2018-09-23T05:47:42.906Z,0.57
2018-09-23T05:50:11.365Z,0.57
2018-09-23T05:52:39.988Z,0.37
2018-09-23T05:55:08.550Z,0.40
2018-09-23T05:57:37.049Z,0.40
2018-09-23T06:00:06.291Z,0.50
2018-09-23T06:02:34.849Z,0.50
2018-09-23T06:05:03.261Z,0.60
2018-09-23T06:07:31.858Z,0.43
2018-09-23T06:10:00.402Z,0.47
2018-09-23T06:12:28.854Z,0.37
2018-09-23T06:14:57.258Z,0.42
2018-09-23T06:17:25.709Z,0.42
2018-09-23T06:19:54.164Z,0.50
2018-09-23T06:22:22.726Z,0.75
2018-09-23T06:24:51.262Z,0.37
2018-09-23T06:27:19.763Z,0.60
2018-09-23T06:29:48.218Z,0.50
2018-09-23T06:32:16.743Z,0.50
2018-09-23T06:34:45.316Z,0.45
2018-09-23T06:37:13.906Z,0.80
2018-09-23T06:39:42.486Z,0.40
2018-09-23T06:42:10.988Z,0.50
2018-09-23T06:44:39.665Z,0.65
2018-09-23T06:47:08.389Z,0.68
2018-09-23T06:49:36.873Z,0.60
2018-09-23T06:52:05.509Z,0.55
2018-09-23T06:54:33.932Z,0.80
2018-09-23T06:57:02.464Z,0.62
2018-09-23T06:59:30.893Z,0.53
2018-09-23T07:01:59.394Z,0.75
2018-09-23T07:04:27.914Z,0.80
2018-09-23T07:06:56.402Z,0.50
2018-09-23T07:09:24.818Z,1.87
2018-09-23T07:11:53.322Z,5.47
2018-09-23T07:14:21.868Z,3.50
2018-09-23T07:16:50.427Z,2.00
2018-09-23T07:19:18.889Z,1.05
2018-09-23T07:21:47.301Z,0.75
2018-09-23T07:24:15.899Z,1.12
2018-09-23T07:26:44.302Z,0.68
2018-09-23T07:29:12.802Z,1.20
2018-09-23T07:31:41.261Z,1.10
2018-09-23T07:34:09.785Z,1.00
2018-09-23T07:36:38.307Z,0.60
2018-09-23T07:39:08.747Z,0.75
2018-09-23T07:41:37.245Z,0.90
2018-09-23T07:44:06.429Z,0.85
2018-09-23T07:46:34.985Z,1.00
2018-09-23T07:49:03.530Z,0.90
2018-09-23T07:51:31.985Z,1.15
2018-09-23T07:54:00.554Z,1.05
2018-09-23T07:56:29.162Z,0.82
2018-09-23T07:58:57.649Z,0.93
2018-09-23T08:01:26.117Z,0.90
2018-09-23T08:03:54.624Z,0.50
2018-09-23T08:06:23.165Z,0.50
2018-09-23T08:08:51.750Z,0.37
2018-09-23T08:11:20.170Z,1.07
2018-09-23T08:13:48.836Z,0.42
2018-09-23T08:16:17.116Z,0.72
2018-09-23T08:18:45.694Z,0.60
2018-09-23T08:21:14.273Z,0.75
2018-09-23T08:23:42.801Z,0.50
2018-09-23T08:26:11.270Z,0.85
2018-09-23T08:28:39.795Z,1.05
2018-09-23T08:31:09.522Z,0.78
2018-09-23T08:33:38.066Z,1.32
2018-09-23T08:36:06.839Z,0.68
2018-09-23T08:38:35.494Z,0.70
2018-09-23T08:41:03.989Z,0.82
2018-09-23T08:43:32.382Z,0.53
2018-09-23T08:46:00.865Z,0.30
2018-09-23T08:48:29.305Z,0.50
2018-09-23T08:50:57.811Z,0.53
2018-09-23T08:53:26.286Z,0.53
2018-09-23T08:55:54.809Z,0.57
2018-09-23T08:58:23.229Z,0.45
2018-09-23T09:00:52.246Z,0.50
2018-09-23T09:03:21.574Z,0.40
2018-09-23T09:05:50.029Z,0.30
2018-09-23T09:08:18.485Z,0.45
2018-09-23T09:10:47.284Z,0.40
2018-09-23T09:13:15.776Z,0.50
2018-09-23T09:15:44.453Z,0.30
2018-09-23T09:18:12.979Z,0.40
2018-09-23T09:20:41.375Z,0.40
2018-09-23T09:23:09.848Z,0.33
2018-09-23T09:25:38.431Z,0.20
2018-09-23T09:28:07.378Z,0.30
2018-09-23T09:30:35.881Z,0.20
2018-09-23T09:33:04.424Z,0.50
2018-09-23T09:35:32.979Z,0.25
2018-09-23T09:38:01.398Z,0.20
2018-09-23T09:40:30.051Z,0.35
2018-09-23T09:42:58.586Z,0.33
2018-09-23T09:45:27.090Z,0.30
2018-09-23T09:47:56.098Z,0.15
2018-09-23T09:50:24.607Z,0.42
2018-09-23T09:52:53.146Z,0.40
2018-09-23T09:55:21.683Z,0.30
2018-09-23T09:57:50.174Z,0.40
2018-09-23T10:00:23.862Z,0.50
2018-09-23T10:02:52.382Z,0.20
2018-09-23T10:05:20.818Z,0.40
2018-09-23T10:07:50.029Z,0.50
2018-09-23T10:10:18.690Z,0.30
2018-09-23T10:12:47.262Z,0.30
2018-09-23T10:15:15.712Z,0.30
2018-09-23T10:17:44.371Z,0.37
2018-09-23T10:20:12.806Z,0.53
2018-09-23T10:22:41.645Z,0.30
2018-09-23T10:25:10.014Z,0.40
2018-09-23T10:27:38.559Z,0.30
2018-09-23T10:30:08.403Z,0.50
2018-09-23T10:32:36.943Z,0.40
2018-09-23T10:35:05.463Z,0.50
2018-09-23T10:37:33.885Z,0.50
2018-09-23T10:40:02.353Z,0.30
2018-09-23T10:42:30.988Z,0.30
2018-09-23T10:44:59.558Z,0.28
2018-09-23T10:47:28.013Z,0.20
2018-09-23T10:49:56.478Z,0.20
2018-09-23T10:52:25.002Z,0.30
2018-09-23T10:54:53.470Z,0.30
2018-09-23T10:57:21.946Z,0.30
2018-09-23T10:59:50.423Z,0.30
2018-09-23T11:02:18.943Z,0.60
2018-09-23T11:04:47.381Z,0.20
2018-09-23T11:07:15.861Z,0.30
2018-09-23T11:09:44.557Z,0.28
2018-09-23T11:12:12.950Z,0.45
2018-09-23T11:14:41.399Z,0.40
2018-09-23T11:17:09.886Z,0.45
2018-09-23T11:19:38.588Z,0.28
2018-09-23T11:22:07.378Z,0.30
2018-09-23T11:24:35.940Z,0.30
2018-09-23T11:27:04.603Z,0.50
2018-09-23T11:29:33.128Z,0.30
2018-09-23T11:32:01.762Z,0.40
2018-09-23T11:34:30.315Z,0.20
2018-09-23T11:36:58.754Z,0.30
2018-09-23T11:39:27.290Z,0.20
2018-09-23T11:41:55.822Z,0.40
2018-09-23T11:44:24.356Z,0.42
2018-09-23T11:46:52.794Z,0.30
2018-09-23T11:49:21.303Z,0.33
2018-09-23T11:51:49.746Z,0.30
2018-09-23T11:54:18.384Z,0.30
2018-09-23T11:56:46.838Z,0.30
2018-09-23T11:59:15.334Z,0.40
2018-09-23T12:01:43.821Z,0.25
2018-09-23T12:04:12.330Z,0.50
2018-09-23T12:06:41.011Z,0.30
2018-09-23T12:09:11.626Z,0.30
2018-09-23T12:11:40.117Z,0.30
2018-09-23T12:14:08.967Z,0.50
2018-09-23T12:16:37.422Z,0.17
2018-09-23T12:19:06.422Z,0.40
2018-09-23T12:21:34.925Z,0.20
2018-09-23T12:24:03.481Z,0.30
2018-09-23T12:26:32.039Z,0.10
2018-09-23T12:29:00.591Z,0.20
2018-09-23T12:31:29.142Z,0.30
2018-09-23T12:33:57.650Z,0.37
2018-09-23T12:36:26.142Z,0.30
2018-09-23T12:38:54.609Z,0.10
2018-09-23T12:41:23.103Z,0.40
2018-09-23T12:43:51.542Z,0.20
2018-09-23T12:46:20.083Z,0.30
2018-09-23T12:48:48.529Z,0.20
2018-09-23T12:51:17.014Z,0.50
2018-09-23T12:53:45.526Z,0.28
2018-09-23T12:56:14.022Z,0.40
2018-09-23T12:58:42.529Z,0.30
2018-09-23T13:01:11.056Z,0.30
2018-09-23T13:03:39.608Z,0.30
2018-09-23T13:06:08.261Z,0.30
2018-09-23T13:08:36.770Z,0.20
2018-09-23T13:11:05.514Z,0.40
2018-09-23T13:13:33.942Z,0.45
2018-09-23T13:16:02.369Z,0.30
2018-09-23T13:18:30.844Z,0.20
2018-09-23T13:20:59.422Z,0.40
2018-09-23T13:23:27.854Z,0.40
2018-09-23T13:25:56.426Z,0.30
2018-09-23T13:28:24.933Z,0.20
2018-09-23T13:30:53.459Z,0.30
2018-09-23T13:33:21.906Z,0.30
2018-09-23T13:35:50.390Z,0.23
2018-09-23T13:38:18.907Z,0.40
2018-09-23T13:40:47.626Z,0.20
2018-09-23T13:43:16.134Z,0.30
2018-09-23T13:45:44.694Z,0.30
2018-09-23T13:48:13.192Z,0.40
2018-09-23T13:50:42.037Z,0.40
2018-09-23T13:53:10.499Z,0.30
2018-09-23T13:55:39.045Z,0.35
2018-09-23T13:58:07.718Z,0.60
2018-09-23T14:00:36.286Z,0.20
2018-09-23T14:03:04.958Z,0.20
2018-09-23T14:05:33.406Z,0.30
2018-09-23T14:08:01.921Z,0.30
2018-09-23T14:10:30.383Z,0.20
2018-09-23T14:12:58.845Z,0.50
2018-09-23T14:15:27.286Z,0.35
2018-09-23T14:17:55.725Z,0.45
2018-09-23T14:20:24.278Z,0.25
2018-09-23T14:22:53.057Z,0.40
2018-09-23T14:25:21.598Z,0.30
2018-09-23T14:27:50.055Z,0.30
2018-09-23T14:30:18.560Z,0.30
2018-09-23T14:32:47.162Z,0.40
2018-09-23T14:35:15.702Z,0.30
2018-09-23T14:37:44.205Z,0.28
2018-09-23T14:40:12.747Z,0.37
2018-09-23T14:42:41.289Z,0.50
2018-09-23T14:45:09.862Z,0.40
2018-09-23T14:47:38.548Z,0.40
2018-09-23T14:50:07.750Z,0.40
2018-09-23T14:52:36.199Z,0.40
2018-09-23T14:55:05.003Z,0.30
2018-09-23T14:57:33.498Z,0.30
2018-09-23T15:00:03.205Z,0.37
2018-09-23T15:02:30.434Z,0.47
2018-09-23T15:04:58.914Z,0.20
2018-09-23T15:07:27.487Z,0.20
2018-09-23T15:09:55.949Z,0.20
2018-09-23T15:12:24.473Z,0.50
2018-09-23T15:14:52.922Z,0.23
2018-09-23T15:17:21.423Z,0.28
2018-09-23T15:19:49.881Z,0.30
2018-09-23T15:22:18.435Z,0.70
2018-09-23T15:24:46.841Z,0.30
2018-09-23T15:27:15.375Z,0.35
2018-09-23T15:29:43.864Z,0.20
2018-09-23T15:32:12.523Z,0.70
2018-09-23T15:34:41.217Z,0.30
2018-09-23T15:37:09.823Z,0.30
2018-09-23T15:39:38.400Z,0.30
2018-09-23T15:42:07.291Z,0.60
2018-09-23T15:44:35.718Z,0.20
2018-09-23T15:47:04.270Z,0.40
2018-09-23T15:49:32.841Z,0.23
2018-09-23T15:52:01.535Z,0.53
2018-09-23T15:54:30.058Z,0.30
2018-09-23T15:56:58.490Z,0.33
2018-09-23T15:59:26.938Z,0.37
2018-09-23T16:01:55.554Z,0.60
2018-09-23T16:04:24.214Z,0.30
2018-09-23T16:06:52.620Z,0.50
2018-09-23T16:09:21.267Z,0.50
2018-09-23T16:11:49.789Z,0.68
2018-09-23T16:14:18.366Z,0.53
2018-09-23T16:16:46.915Z,0.40
2018-09-23T16:19:15.366Z,0.45
2018-09-23T16:21:44.016Z,0.70
2018-09-23T16:24:12.591Z,0.62
2018-09-23T16:26:41.214Z,0.35
2018-09-23T16:29:09.969Z,0.37
2018-09-23T16:31:38.512Z,0.70
2018-09-23T16:34:07.169Z,0.50
2018-09-23T16:36:35.666Z,0.40
2018-09-23T16:39:05.563Z,0.40
2018-09-23T16:41:34.234Z,0.40
2018-09-23T16:44:02.668Z,0.60
2018-09-23T16:46:31.204Z,0.53
2018-09-23T16:48:59.655Z,0.25
2018-09-23T16:51:28.245Z,0.60
2018-09-23T16:53:56.769Z,0.40
2018-09-23T16:56:25.425Z,0.40
2018-09-23T16:58:53.913Z,0.40
2018-09-23T17:01:22.349Z,0.47
2018-09-23T17:03:50.921Z,0.60
2018-09-23T17:06:19.589Z,0.60
2018-09-23T17:08:48.217Z,0.30
2018-09-23T17:11:16.728Z,0.47
2018-09-23T17:13:45.212Z,0.42
2018-09-23T17:16:13.650Z,0.45
2018-09-23T17:18:42.165Z,0.40
2018-09-23T17:21:10.634Z,0.60
2018-09-23T17:23:39.292Z,0.50
2018-09-23T17:26:07.827Z,0.40
2018-09-23T17:28:36.357Z,0.42
2018-09-23T17:31:04.988Z,0.50
2018-09-23T17:33:33.429Z,0.30
2018-09-23T17:36:01.998Z,0.47
2018-09-23T17:38:30.413Z,0.57
2018-09-23T17:40:59.249Z,0.65
2018-09-23T17:43:27.706Z,0.40
2018-09-23T17:45:56.531Z,0.70
2018-09-23T17:48:24.947Z,0.37
2018-09-23T17:50:53.629Z,0.68
2018-09-23T17:53:22.161Z,0.62
2018-09-23T17:55:50.829Z,0.30
2018-09-23T17:58:19.262Z,0.50
2018-09-23T18:00:47.758Z,0.57
2018-09-23T18:03:16.573Z,0.62
2018-09-23T18:05:45.141Z,0.40
2018-09-23T18:08:13.943Z,0.53
2018-09-23T18:10:42.414Z,0.60
2018-09-23T18:13:10.920Z,0.70
2018-09-23T18:15:39.674Z,0.35
2018-09-23T18:18:08.346Z,0.47
2018-09-23T18:20:37.084Z,0.23
2018-09-23T18:23:05.970Z,0.75
2018-09-23T18:25:34.525Z,0.30
2018-09-23T18:28:03.136Z,0.30
2018-09-23T18:30:31.597Z,0.20
2018-09-23T18:33:00.086Z,0.47
2018-09-23T18:35:28.718Z,0.40
2018-09-23T18:37:57.234Z,0.40
2018-09-23T18:40:25.853Z,0.30
2018-09-23T18:42:54.294Z,0.60
2018-09-23T18:45:22.851Z,0.57
2018-09-23T18:47:51.358Z,0.30
2018-09-23T18:50:19.985Z,0.30
2018-09-23T18:52:52.779Z,0.80
2018-09-23T18:55:27.019Z,0.47
2018-09-23T18:57:55.355Z,0.40
2018-09-23T19:00:23.862Z,0.50
2018-09-23T19:02:52.414Z,0.57
2018-09-23T19:05:21.112Z,0.50
2018-09-23T19:07:49.572Z,0.40
2018-09-23T19:10:18.071Z,0.67
2018-09-23T19:12:52.057Z,0.70
2018-09-23T19:15:20.544Z,0.50
2018-09-23T19:17:49.309Z,0.60
2018-09-23T19:20:17.789Z,0.50
2018-09-23T19:22:51.669Z,0.50
2018-09-23T19:25:20.560Z,0.67
2018-09-23T19:27:49.091Z,0.30
2018-09-23T19:30:17.760Z,0.50
2018-09-23T19:32:46.263Z,0.43
2018-09-23T19:35:14.770Z,0.50
2018-09-23T19:37:43.230Z,0.20
2018-09-23T19:40:11.690Z,0.53
2018-09-23T19:42:40.256Z,0.40
2018-09-23T19:45:09.046Z,0.40
2018-09-23T19:47:37.741Z,0.20
2018-09-23T19:50:06.787Z,0.33
2018-09-23T19:52:35.313Z,0.30
2018-09-23T19:55:03.864Z,0.30
2018-09-23T19:57:32.592Z,0.37
2018-09-23T20:00:01.080Z,0.50
2018-09-23T20:02:29.752Z,0.40
2018-09-23T20:04:58.250Z,0.30
2018-09-23T20:07:26.878Z,0.40
2018-09-23T20:09:55.370Z,0.40
2018-09-23T20:12:23.815Z,0.30
2018-09-23T20:14:52.497Z,0.43
2018-09-23T20:17:21.032Z,0.40
2018-09-23T20:19:49.738Z,0.50
2018-09-23T20:22:18.270Z,0.73
2018-09-23T20:24:47.011Z,0.30
2018-09-23T20:27:15.546Z,0.57
2018-09-23T20:29:44.362Z,0.40
2018-09-23T20:32:12.892Z,0.70
2018-09-23T20:34:41.608Z,0.30
2018-09-23T20:37:10.035Z,0.50
2018-09-23T20:39:38.568Z,0.67
2018-09-23T20:42:07.391Z,0.60
2018-09-23T20:44:35.995Z,0.40
2018-09-23T20:47:04.542Z,0.30
2018-09-23T20:49:33.116Z,0.37
2018-09-23T20:52:01.675Z,0.50
2018-09-23T20:54:30.253Z,0.30
2018-09-23T20:56:59.081Z,0.27
2018-09-23T20:59:27.701Z,0.30
2018-09-23T21:01:56.430Z,0.50
2018-09-23T21:04:24.905Z,0.20
2018-09-23T21:06:53.360Z,0.30
2018-09-23T21:09:21.972Z,0.30
2018-09-23T21:11:50.421Z,0.50
2018-09-23T21:14:19.185Z,0.30
2018-09-23T21:16:48.371Z,0.23
2018-09-23T21:19:17.068Z,0.40
2018-09-23T21:21:45.561Z,0.40
2018-09-23T21:24:14.243Z,0.40
2018-09-23T21:26:42.766Z,0.30
2018-09-23T21:29:11.473Z,0.37
2018-09-23T21:31:39.937Z,0.40
2018-09-23T21:34:09.055Z,0.60
2018-09-23T21:36:37.497Z,0.47
2018-09-23T21:39:07.982Z,0.40
2018-09-23T21:41:36.666Z,0.67
2018-09-23T21:44:05.747Z,0.50
2018-09-23T21:46:34.209Z,0.50
2018-09-23T21:49:02.906Z,0.40
2018-09-23T21:51:31.353Z,0.50
2018-09-23T21:53:59.895Z,0.60
2018-09-23T21:56:28.440Z,0.57
2018-09-23T21:58:56.890Z,0.50
2018-09-23T22:01:25.541Z,0.60
2018-09-23T22:03:53.962Z,0.60
2018-09-23T22:06:22.494Z,0.43
2018-09-23T22:08:51.062Z,0.30
2018-09-23T22:11:19.546Z,0.73
2018-09-23T22:13:47.987Z,0.50
2018-09-23T22:16:16.510Z,0.40
2018-09-23T22:18:44.964Z,0.57
2018-09-23T22:21:13.470Z,0.43
2018-09-23T22:23:42.004Z,0.53
2018-09-23T22:26:10.546Z,0.40
2018-09-23T22:28:39.581Z,0.50
2018-09-23T22:31:09.486Z,0.40
2018-09-23T22:33:38.013Z,0.40
2018-09-23T22:36:07.065Z,0.60
2018-09-23T22:38:35.604Z,0.53
2018-09-23T22:41:04.225Z,0.60
2018-09-23T22:43:32.729Z,0.60
2018-09-23T22:46:01.521Z,0.53
2018-09-23T22:48:30.026Z,0.57
2018-09-23T22:50:58.573Z,0.53
2018-09-23T22:53:27.090Z,0.40
2018-09-23T22:55:55.591Z,0.40
2018-09-23T22:58:24.034Z,0.50
2018-09-23T23:00:52.550Z,0.40
2018-09-23T23:03:21.014Z,0.50
2018-09-23T23:05:49.531Z,0.40
2018-09-23T23:08:17.973Z,0.60
2018-09-23T23:10:46.464Z,0.50
2018-09-23T23:13:14.936Z,0.80
2018-09-23T23:15:43.435Z,0.33
2018-09-23T23:18:11.983Z,0.40
2018-09-23T23:20:40.526Z,0.53
2018-09-23T23:23:09.281Z,0.40
2018-09-23T23:25:37.749Z,0.50
2018-09-23T23:28:06.594Z,0.50
2018-09-23T23:30:35.121Z,0.40
2018-09-23T23:33:03.638Z,0.43
2018-09-23T23:35:32.246Z,0.47
2018-09-23T23:38:00.801Z,0.20
2018-09-23T23:40:29.379Z,0.30
2018-09-23T23:42:57.860Z,0.30
2018-09-23T23:45:26.329Z,0.50
2018-09-23T23:47:54.838Z,0.40
2018-09-23T23:50:23.297Z,0.40
2018-09-23T23:52:51.778Z,0.50
2018-09-23T23:55:20.244Z,0.50
2018-09-23T23:57:48.768Z,0.40
